Time;durP1;ratioP1;P1;durP2;ratioP2;P2;SDS_P1;SDS_P2;PMS_P1;PMS_P2;Temp;Humidity;BMP_temperature;BMP_pressure;BME280_temperature;BME280_humidity;BME280_pressure;Samples;Min_cycle;Max_cycle;Signal;HPM_P1;HPM_P2
2022/06/10 00:00:24;;;;;;;3.33;2.50;;;13.40;99.90;;;;;;4994834;28;20174;-91
2022/06/10 00:02:51;;;;;;;3.57;2.17;;;13.30;99.90;;;;;;4995015;28;20182;-91
2022/06/10 00:05:20;;;;;;;7.30;2.40;;;13.40;99.90;;;;;;4994982;28;20202;-91
2022/06/10 00:07:46;;;;;;;4.93;2.10;;;13.50;99.90;;;;;;4995283;28;20250;-91
2022/06/10 00:10:14;;;;;;;3.30;1.97;;;13.40;99.90;;;;;;4994618;28;20187;-91
2022/06/10 00:12:42;;;;;;;7.67;2.33;;;13.40;99.90;;;;;;4995133;28;20262;-90
2022/06/10 00:15:08;;;;;;;4.03;2.33;;;13.30;99.90;;;;;;4994793;28;20185;-90
2022/06/10 00:17:34;;;;;;;4.30;2.20;;;13.30;99.90;;;;;;4994891;28;20190;-91
2022/06/10 00:20:03;;;;;;;3.80;2.30;;;13.10;99.90;;;;;;4995128;28;20188;-90
2022/06/10 00:22:30;;;;;;;3.00;2.10;;;13.00;99.90;;;;;;4995374;28;20207;-91
2022/06/10 00:24:56;;;;;;;3.37;2.40;;;12.90;99.90;;;;;;4978824;28;20205;-91
2022/06/10 00:27:22;;;;;;;2.90;2.37;;;12.90;99.90;;;;;;4995361;28;20225;-91
2022/06/10 00:29:48;;;;;;;4.30;2.27;;;12.80;99.90;;;;;;4995224;28;20217;-91
2022/06/10 00:32:15;;;;;;;3.23;2.00;;;12.80;99.90;;;;;;4995859;28;20218;-90
2022/06/10 00:34:41;;;;;;;6.17;2.40;;;12.80;99.90;;;;;;4979878;28;20627;-90
2022/06/10 00:37:08;;;;;;;5.43;2.30;;;12.80;99.90;;;;;;4996026;28;20197;-91
2022/06/10 00:39:34;;;;;;;4.47;2.50;;;12.80;99.90;;;;;;4995359;28;20190;-90
2022/06/10 00:42:03;;;;;;;3.27;2.10;;;12.80;99.90;;;;;;4994398;28;20210;-90
2022/06/10 00:44:36;;;;;;;3.77;1.90;;;12.80;99.90;;;;;;4994311;28;20183;-90
2022/06/10 00:47:29;;;;;;;3.13;2.17;;;12.70;99.90;;;;;;4978479;28;20203;-91
2022/06/10 00:50:21;;;;;;;4.40;2.33;;;12.70;99.90;;;;;;4994201;28;20216;-91
2022/06/10 00:52:54;;;;;;;5.07;2.80;;;12.70;99.90;;;;;;4971088;28;20225;-91
2022/06/10 00:55:28;;;;;;;3.13;2.33;;;12.60;99.90;;;;;;4994368;28;20187;-91
2022/06/10 00:58:02;;;;;;;6.53;2.70;;;12.60;99.90;;;;;;4978247;28;20182;-91
2022/06/10 01:00:28;;;;;;;6.03;2.33;;;12.60;99.90;;;;;;4993869;28;20273;-90
2022/06/10 01:02:55;;;;;;;4.20;2.50;;;12.60;99.90;;;;;;4994556;28;20197;-90
2022/06/10 01:05:26;;;;;;;2.77;2.13;;;12.50;99.90;;;;;;4994029;28;20225;-90
2022/06/10 01:08:00;;;;;;;4.40;2.60;;;12.50;99.90;;;;;;4977707;28;20181;-90
2022/06/10 01:10:28;;;;;;;4.10;2.37;;;12.50;99.90;;;;;;4977966;28;20173;-90
2022/06/10 01:12:54;;;;;;;5.50;2.70;;;12.50;99.90;;;;;;4977984;28;20217;-90
2022/06/10 01:15:30;;;;;;;3.40;2.57;;;12.60;99.90;;;;;;4994290;28;20212;-91
2022/06/10 01:18:17;;;;;;;4.20;2.70;;;12.50;99.90;;;;;;4977750;28;20184;-91
2022/06/10 01:20:52;;;;;;;4.17;2.40;;;12.40;99.90;;;;;;4993331;28;20244;-90
2022/06/10 01:23:50;;;;;;;6.30;2.80;;;12.30;99.90;;;;;;4993900;28;20198;-90
2022/06/10 01:27:58;;;;;;;6.27;2.17;;;12.30;99.90;;;;;;4967437;28;20248;-91
2022/06/10 01:30:11;;;;;;;5.77;2.17;;;12.30;99.90;;;;;;4988960;28;20185;-90
2022/06/10 01:32:48;;;;;;;4.57;2.47;;;12.20;99.90;;;;;;5004532;28;20221;-91
2022/06/10 01:35:39;;;;;;;3.37;2.63;;;12.20;99.90;;;;;;4993385;28;20177;-90
2022/06/10 01:38:28;;;;;;;4.07;2.33;;;12.20;99.90;;;;;;4993625;28;20239;-90
2022/06/10 01:41:11;;;;;;;3.03;2.53;;;12.10;99.90;;;;;;5010133;28;20200;-90
2022/06/10 01:43:55;;;;;;;8.20;3.00;;;12.10;99.90;;;;;;4993618;28;20174;-91
2022/06/10 01:46:30;;;;;;;4.40;2.40;;;12.10;99.90;;;;;;4993820;28;20178;-90
2022/06/10 01:49:20;;;;;;;4.20;2.47;;;12.00;99.90;;;;;;4993392;28;20183;-91
2022/06/10 01:51:56;;;;;;;6.00;2.53;;;12.00;99.90;;;;;;4992983;28;20213;-91
2022/06/10 01:54:44;;;;;;;3.27;2.20;;;12.00;99.90;;;;;;4993234;28;20180;-90
2022/06/10 01:57:19;;;;;;;3.80;2.37;;;11.90;99.90;;;;;;4977194;28;20219;-91
2022/06/10 01:59:52;;;;;;;5.27;2.70;;;11.90;99.90;;;;;;4977278;28;20183;-90
2022/06/10 02:02:23;;;;;;;4.10;2.60;;;11.90;99.90;;;;;;4977398;28;20201;-91
2022/06/10 02:05:01;;;;;;;3.27;2.60;;;11.90;99.90;;;;;;4993495;28;20185;-90
2022/06/10 02:07:40;;;;;;;4.67;2.53;;;11.80;99.90;;;;;;4977288;28;20184;-90
2022/06/10 02:10:36;;;;;;;4.70;2.80;;;11.80;99.90;;;;;;4977156;28;20180;-90
2022/06/10 02:13:07;;;;;;;5.43;2.50;;;11.70;99.90;;;;;;4989636;28;20218;-91
2022/06/10 02:15:46;;;;;;;4.37;2.70;;;11.60;99.90;;;;;;4977064;28;20329;-91
2022/06/10 02:18:28;;;;;;;3.63;2.50;;;11.60;99.90;;;;;;4993599;28;20186;-91
2022/06/10 02:21:01;;;;;;;5.63;2.90;;;11.50;99.90;;;;;;4979327;28;20242;-91
2022/06/10 02:23:31;;;;;;;4.03;2.83;;;11.50;99.90;;;;;;4996693;28;20664;-90
2022/06/10 02:25:59;;;;;;;3.07;2.60;;;11.40;99.90;;;;;;4993210;28;20224;-90
2022/06/10 02:28:39;;;;;;;5.17;3.23;;;11.30;99.90;;;;;;4977556;28;20185;-90
2022/06/10 02:31:34;;;;;;;3.40;2.60;;;11.30;99.90;;;;;;4976862;28;20222;-90
2022/06/10 02:34:01;;;;;;;3.53;2.93;;;11.30;99.90;;;;;;4976889;28;20213;-90
2022/06/10 02:36:50;;;;;;;4.73;2.80;;;11.30;99.90;;;;;;4993407;28;20285;-90
2022/06/10 02:39:32;;;;;;;4.80;2.70;;;11.30;99.90;;;;;;4977153;28;20191;-90
2022/06/10 02:42:39;;;;;;;4.43;2.97;;;11.20;99.90;;;;;;4976944;28;20299;-91
2022/06/10 02:45:08;;;;;;;3.43;2.30;;;11.10;99.90;;;;;;4956833;28;20563;-91
2022/06/10 02:47:40;;;;;;;4.40;2.60;;;11.10;99.90;;;;;;4974303;28;20227;-90
2022/06/10 02:50:09;;;;;;;4.97;2.50;;;11.10;99.90;;;;;;4993274;28;20190;-90
2022/06/10 02:52:36;;;;;;;4.30;2.53;;;11.00;99.90;;;;;;4976718;28;20216;-91
2022/06/10 02:55:05;;;;;;;4.47;2.70;;;10.90;99.90;;;;;;4988492;28;20222;-90
2022/06/10 03:03:15;;;;;;;5.23;2.50;;;10.80;99.90;;;;;;5012324;28;20194;-90
2022/06/10 03:06:00;;;;;;;5.97;2.87;;;10.80;99.90;;;;;;4980376;28;20222;-90
2022/06/10 03:08:34;;;;;;;7.27;3.23;;;10.80;99.90;;;;;;4980131;28;20182;-90
2022/06/10 03:11:40;;;;;;;6.53;3.37;;;10.70;99.90;;;;;;4979914;28;20289;-91
2022/06/10 03:14:15;;;;;;;3.00;2.70;;;10.70;99.90;;;;;;4980296;28;20171;-90
2022/06/10 03:17:20;;;;;;;5.97;2.77;;;10.70;99.90;;;;;;4980388;28;20245;-90
2022/06/10 03:20:30;;;;;;;4.17;2.87;;;10.70;99.90;;;;;;4983176;28;20210;-91
2022/06/10 03:22:59;;;;;;;4.03;2.93;;;10.60;99.90;;;;;;4984876;28;20190;-90
2022/06/10 03:25:40;;;;;;;4.03;2.63;;;10.50;99.90;;;;;;4995418;28;20191;-90
2022/06/10 03:28:26;;;;;;;4.33;3.07;;;10.50;99.90;;;;;;4979777;28;20175;-90
2022/06/10 03:31:08;;;;;;;5.73;3.10;;;10.40;99.90;;;;;;5012004;28;20191;-90
2022/06/10 03:33:50;;;;;;;4.50;3.17;;;10.40;99.90;;;;;;4979510;28;20175;-90
2022/06/10 03:36:27;;;;;;;6.63;3.37;;;10.40;99.90;;;;;;4979823;28;20258;-90
2022/06/10 03:38:54;;;;;;;3.97;3.17;;;10.50;99.90;;;;;;4996074;28;20620;-91
2022/06/10 03:41:26;;;;;;;4.17;3.40;;;10.50;99.90;;;;;;4995676;28;20203;-90
2022/06/10 03:43:55;;;;;;;5.93;3.53;;;10.60;99.90;;;;;;4979449;28;20187;-90
2022/06/10 03:46:24;;;;;;;4.87;3.80;;;10.70;99.90;;;;;;4979269;28;20234;-90
2022/06/10 03:48:51;;;;;;;5.67;3.53;;;10.80;99.90;;;;;;4979139;28;20190;-91
2022/06/10 03:51:18;;;;;;;9.63;3.47;;;10.80;99.90;;;;;;4995325;28;20207;-90
2022/06/10 03:53:45;;;;;;;5.10;3.47;;;10.80;99.90;;;;;;4979183;28;20305;-90
2022/06/10 03:56:12;;;;;;;3.57;2.93;;;10.90;99.90;;;;;;4979313;28;20199;-91
2022/06/10 03:58:39;;;;;;;5.03;3.57;;;10.90;99.90;;;;;;4979491;28;20176;-90
2022/06/10 04:01:06;;;;;;;4.43;3.30;;;10.90;99.90;;;;;;4995865;28;20282;-91
2022/06/10 04:03:33;;;;;;;5.13;3.00;;;10.80;99.90;;;;;;4979964;28;20186;-90
2022/06/10 04:05:58;;;;;;;6.00;3.70;;;10.80;99.90;;;;;;4980289;28;20182;-90
2022/06/10 04:08:24;;;;;;;5.50;3.10;;;10.80;99.90;;;;;;4980211;28;20183;-90
2022/06/10 04:10:50;;;;;;;5.80;3.00;;;10.70;99.90;;;;;;4980302;28;20230;-90
2022/06/10 04:13:20;;;;;;;4.73;3.20;;;10.60;99.90;;;;;;4995323;28;20230;-91
2022/06/10 04:15:46;;;;;;;7.97;3.27;;;10.60;99.90;;;;;;4979290;28;20179;-90
2022/06/10 04:18:12;;;;;;;5.03;3.37;;;10.50;99.90;;;;;;4979322;28;20190;-91
2022/06/10 04:20:39;;;;;;;3.50;3.20;;;10.50;99.90;;;;;;4979590;28;20231;-90
2022/06/10 04:23:05;;;;;;;5.60;3.30;;;10.50;99.90;;;;;;4979463;28;20215;-90
2022/06/10 04:25:33;;;;;;;9.00;3.70;;;10.50;99.90;;;;;;4979267;28;20278;-90
2022/06/10 04:27:59;;;;;;;4.43;3.17;;;10.50;99.90;;;;;;5026736;28;20179;-90
2022/06/10 04:30:46;;;;;;;6.20;3.50;;;10.60;99.90;;;;;;5011471;28;20179;-90
2022/06/10 04:33:13;;;;;;;5.47;3.20;;;10.60;99.90;;;;;;5011130;28;20237;-90
2022/06/10 04:35:41;;;;;;;6.27;3.53;;;10.70;99.90;;;;;;4994479;28;20282;-91
2022/06/10 04:38:08;;;;;;;4.67;3.47;;;10.80;99.90;;;;;;4994586;28;20217;-91
2022/06/10 04:40:36;;;;;;;5.43;3.70;;;10.90;99.90;;;;;;4994458;28;20202;-90
2022/06/10 04:43:03;;;;;;;6.53;3.40;;;10.90;99.90;;;;;;4994041;28;20187;-90
2022/06/10 04:45:36;;;;;;;4.60;3.43;;;10.90;99.90;;;;;;5010691;28;20183;-91
2022/06/10 04:48:02;;;;;;;5.03;3.50;;;11.00;99.90;;;;;;4994374;28;20176;-90
2022/06/10 04:50:29;;;;;;;4.87;3.23;;;11.10;99.90;;;;;;5010700;28;20190;-90
2022/06/10 04:52:55;;;;;;;5.27;3.70;;;11.20;99.90;;;;;;5011231;28;20317;-92
2022/06/10 04:55:22;;;;;;;4.80;3.47;;;11.30;99.90;;;;;;5021398;28;20183;-93
2022/06/10 04:57:48;;;;;;;4.97;3.80;;;11.30;99.90;;;;;;5009528;28;20223;-90
2022/06/10 05:00:19;;;;;;;6.20;3.60;;;11.30;99.90;;;;;;4977947;28;20179;-90
2022/06/10 05:02:45;;;;;;;5.13;3.33;;;11.40;99.90;;;;;;4977980;28;20234;-90
2022/06/10 05:05:11;;;;;;;7.23;3.40;;;11.40;99.90;;;;;;4993749;28;20257;-91
2022/06/10 05:07:37;;;;;;;4.37;3.20;;;11.50;99.90;;;;;;4993630;28;20180;-91
2022/06/10 05:10:05;;;;;;;5.83;3.60;;;11.60;99.90;;;;;;4993639;28;20180;-90
2022/06/10 05:12:31;;;;;;;8.10;3.77;;;11.70;99.90;;;;;;4994140;28;20671;-91
2022/06/10 05:14:56;;;;;;;7.60;3.97;;;11.70;99.90;;;;;;4994373;28;20187;-90
2022/06/10 05:17:23;;;;;;;4.50;3.50;;;11.80;99.90;;;;;;4993900;28;20184;-90
2022/06/10 05:19:49;;;;;;;5.80;3.37;;;11.80;99.90;;;;;;4993990;28;20193;-91
2022/06/10 05:22:16;;;;;;;5.83;3.37;;;11.90;99.90;;;;;;4993897;28;20203;-90
2022/06/10 05:24:42;;;;;;;3.97;3.20;;;12.00;99.90;;;;;;4993683;28;20668;-91
2022/06/10 05:27:10;;;;;;;7.13;3.23;;;12.20;99.90;;;;;;4993723;28;20223;-91
2022/06/10 05:29:36;;;;;;;4.43;2.97;;;12.40;99.90;;;;;;4977643;28;20191;-90
2022/06/10 05:32:02;;;;;;;4.17;2.70;;;12.50;99.90;;;;;;4993879;28;20217;-91
2022/06/10 05:34:44;;;;;;;4.43;2.83;;;12.60;99.90;;;;;;4993682;28;20190;-91
2022/06/10 05:37:11;;;;;;;5.80;3.10;;;12.70;99.90;;;;;;4977477;28;20193;-91
2022/06/10 05:39:37;;;;;;;5.20;2.80;;;12.80;99.90;;;;;;4993735;28;20177;-91
2022/06/10 05:42:06;;;;;;;6.40;3.30;;;13.00;99.90;;;;;;4977562;28;20309;-91
2022/06/10 05:44:33;;;;;;;7.43;2.97;;;13.10;99.90;;;;;;4993443;28;20183;-91
2022/06/10 05:47:03;;;;;;;5.90;3.00;;;13.20;99.90;;;;;;4993679;28;20194;-91
2022/06/10 05:49:30;;;;;;;4.53;2.80;;;13.30;99.90;;;;;;4993574;28;20198;-91
2022/06/10 05:51:56;;;;;;;7.00;3.23;;;13.40;99.90;;;;;;4993312;28;20224;-90
2022/06/10 05:54:24;;;;;;;5.07;2.87;;;13.50;99.90;;;;;;4993340;28;20218;-90
2022/06/10 05:56:50;;;;;;;6.87;3.00;;;13.60;99.90;;;;;;4981197;28;20221;-91
2022/06/10 05:59:18;;;;;;;5.13;2.90;;;13.80;99.90;;;;;;4997324;28;20207;-90
2022/06/10 06:01:45;;;;;;;5.07;2.90;;;13.90;99.90;;;;;;4980865;28;20670;-91
2022/06/10 06:04:11;;;;;;;4.77;3.13;;;14.10;99.90;;;;;;4980872;28;20269;-91
2022/06/10 06:06:37;;;;;;;4.77;2.87;;;14.20;99.90;;;;;;4980852;28;20273;-91
2022/06/10 06:09:04;;;;;;;6.73;3.33;;;14.40;99.90;;;;;;4981115;28;20274;-91
2022/06/10 06:11:30;;;;;;;3.47;2.97;;;14.50;99.90;;;;;;4980728;28;20218;-91
2022/06/10 06:13:58;;;;;;;4.57;3.10;;;14.70;99.90;;;;;;4997404;28;20187;-91
2022/06/10 06:16:24;;;;;;;5.40;3.00;;;14.80;99.90;;;;;;4996619;28;20632;-91
2022/06/10 06:18:52;;;;;;;5.53;2.60;;;14.90;99.90;;;;;;4980643;28;20179;-91
2022/06/10 06:21:18;;;;;;;7.03;3.27;;;15.00;99.90;;;;;;4997160;28;20213;-91
2022/06/10 06:23:44;;;;;;;7.40;2.80;;;15.00;99.90;;;;;;4981173;28;20187;-90
2022/06/10 06:26:15;;;;;;;5.23;2.30;;;15.10;99.90;;;;;;4996964;28;20191;-91
2022/06/10 06:28:42;;;;;;;4.07;2.30;;;15.20;99.90;;;;;;5013307;28;20179;-91
2022/06/10 06:31:09;;;;;;;5.20;2.33;;;15.20;99.90;;;;;;5013028;28;20309;-91
2022/06/10 06:33:36;;;;;;;3.93;2.60;;;15.50;99.90;;;;;;5013282;28;20268;-90
2022/06/10 06:36:04;;;;;;;3.97;2.27;;;15.60;99.90;;;;;;5013292;28;20246;-90
2022/06/10 06:38:30;;;;;;;5.93;2.63;;;15.70;99.90;;;;;;5013039;28;20365;-91
2022/06/10 06:40:56;;;;;;;4.60;2.20;;;15.90;99.90;;;;;;5012717;28;20203;-91
2022/06/10 06:43:22;;;;;;;3.83;2.27;;;16.00;99.90;;;;;;4997065;28;20186;-91
2022/06/10 06:45:48;;;;;;;5.10;2.60;;;16.20;99.90;;;;;;4996576;28;20218;-91
2022/06/10 06:48:15;;;;;;;6.33;2.50;;;16.30;99.90;;;;;;5013277;28;20175;-91
2022/06/10 06:50:50;;;;;;;5.37;2.33;;;16.50;99.90;;;;;;4996599;28;20314;-91
2022/06/10 06:53:17;;;;;;;4.67;2.40;;;16.70;99.90;;;;;;5012885;28;20215;-91
2022/06/10 06:55:44;;;;;;;3.37;2.00;;;16.80;99.90;;;;;;5012552;28;20182;-91
2022/06/10 06:58:14;;;;;;;2.43;1.90;;;17.00;99.90;;;;;;5012993;28;20179;-91
2022/06/10 07:00:40;;;;;;;4.40;2.00;;;17.20;99.90;;;;;;5012759;28;20180;-91
2022/06/10 07:03:06;;;;;;;3.80;2.30;;;17.10;99.90;;;;;;5012927;28;20211;-91
2022/06/10 07:05:35;;;;;;;3.93;2.13;;;17.20;99.90;;;;;;5011974;28;20190;-91
2022/06/10 07:08:01;;;;;;;5.17;2.30;;;17.40;99.90;;;;;;5012543;28;20263;-91
2022/06/10 07:10:28;;;;;;;2.80;2.03;;;17.40;99.90;;;;;;5012486;28;20195;-92
2022/06/10 07:12:54;;;;;;;6.53;2.30;;;17.60;99.90;;;;;;5012457;28;20215;-91
2022/06/10 07:15:21;;;;;;;4.07;2.15;;;17.70;99.90;;;;;;4996402;28;20175;-91
2022/06/10 07:17:48;;;;;;;5.10;2.53;;;17.80;99.90;;;;;;5012493;28;20178;-91
2022/06/10 07:20:30;;;;;;;4.57;2.30;;;18.00;99.90;;;;;;4996334;28;20216;-91
2022/06/10 07:22:57;;;;;;;7.53;2.60;;;18.00;99.90;;;;;;5012241;28;20186;-91
2022/06/10 07:25:23;;;;;;;5.78;2.20;;;18.20;99.90;;;;;;5012383;28;20274;-92
2022/06/10 07:27:52;;;;;;;5.10;2.42;;;18.30;99.90;;;;;;5012426;28;20183;-91
2022/06/10 07:30:20;;;;;;;2.97;2.05;;;18.40;99.90;;;;;;4996420;28;20189;-92
2022/06/10 07:32:46;;;;;;;5.80;1.98;;;18.50;99.90;;;;;;5012425;28;20282;-91
2022/06/10 07:35:13;;;;;;;4.22;2.17;;;18.70;99.90;;;;;;5013462;28;20216;-91
2022/06/10 07:37:40;;;;;;;3.88;2.03;;;18.90;99.90;;;;;;5013328;28;20211;-91
2022/06/10 07:40:07;;;;;;;4.60;2.03;;;19.10;99.90;;;;;;5013667;28;20221;-91
2022/06/10 07:42:34;;;;;;;6.00;2.30;;;19.30;99.90;;;;;;4996952;28;20294;-91
2022/06/10 07:45:02;;;;;;;6.00;2.05;;;19.40;99.90;;;;;;5013302;28;20233;-91
2022/06/10 07:47:28;;;;;;;5.65;2.00;;;19.60;99.90;;;;;;4996530;28;20184;-91
2022/06/10 07:49:54;;;;;;;5.57;2.30;;;19.60;99.90;;;;;;5012038;28;20194;-91
2022/06/10 07:52:20;;;;;;;5.38;1.90;;;19.60;99.90;;;;;;5012058;28;20222;-91
2022/06/10 07:54:46;;;;;;;4.90;1.90;;;19.70;99.90;;;;;;5011508;28;20651;-92
2022/06/10 07:57:12;;;;;;;4.43;2.05;;;19.90;99.90;;;;;;5011909;28;20168;-91
2022/06/10 07:59:42;;;;;;;4.45;1.83;;;20.00;99.90;;;;;;5012154;28;20171;-92
2022/06/10 08:02:09;;;;;;;4.70;1.55;;;20.10;99.90;;;;;;5011675;28;20207;-91
2022/06/10 08:04:35;;;;;;;5.32;1.73;;;20.10;99.90;;;;;;5011420;28;20235;-91
2022/06/10 08:07:01;;;;;;;3.95;1.85;;;20.10;99.90;;;;;;5011763;28;20187;-91
2022/06/10 08:09:27;;;;;;;3.55;1.80;;;20.10;99.90;;;;;;5011883;28;20194;-91
2022/06/10 08:11:53;;;;;;;3.03;1.80;;;20.30;99.90;;;;;;5011320;28;20298;-91
2022/06/10 08:14:19;;;;;;;5.65;2.30;;;20.40;99.90;;;;;;5011295;28;20272;-91
2022/06/10 08:16:46;;;;;;;4.45;1.77;;;20.60;99.90;;;;;;5011244;28;20253;-91
2022/06/10 08:19:12;;;;;;;3.50;1.73;;;20.50;99.90;;;;;;5010701;28;20175;-92
2022/06/10 08:24:23;;;;;;;5.88;2.08;;;20.80;99.90;;;;;;4994988;28;20190;-92
2022/06/10 08:26:49;;;;;;;5.93;1.90;;;20.80;99.90;;;;;;4995062;28;20192;-91
2022/06/10 08:29:16;;;;;;;6.45;1.88;;;20.70;99.90;;;;;;5011289;28;20187;-91
2022/06/10 08:31:42;;;;;;;6.68;2.00;;;20.80;99.90;;;;;;4994125;28;20234;-92
2022/06/10 08:34:08;;;;;;;3.83;1.70;;;21.10;99.90;;;;;;5011052;28;20296;-91
2022/06/10 08:36:34;;;;;;;3.30;1.52;;;21.40;99.90;;;;;;4994494;28;20179;-92
2022/06/10 08:39:00;;;;;;;4.53;1.55;;;21.70;99.90;;;;;;4994830;28;20274;-91
2022/06/10 08:41:46;;;;;;;5.90;1.50;;;21.80;99.90;;;;;;4994853;28;20293;-92
2022/06/10 08:44:20;;;;;;;7.47;1.77;;;22.10;99.90;;;;;;4994334;28;20190;-91
2022/06/10 08:47:20;;;;;;;4.28;1.70;;;22.30;99.90;;;;;;5011120;28;20198;-91
2022/06/10 08:50:13;;;;;;;5.75;1.50;;;22.60;99.90;;;;;;4994528;28;20190;-91
2022/06/10 08:53:05;;;;;;;6.03;1.50;;;22.30;99.90;;;;;;4994432;28;20215;-91
2022/06/10 08:55:57;;;;;;;4.32;1.65;;;22.30;99.90;;;;;;4971910;28;20187;-92
2022/06/10 08:58:34;;;;;;;3.08;1.50;;;22.30;99.90;;;;;;4994664;28;20234;-91
2022/06/10 09:01:11;;;;;;;5.30;1.30;;;22.40;99.90;;;;;;5011076;28;20201;-92
2022/06/10 09:04:12;;;;;;;5.13;1.80;;;22.30;99.90;;;;;;5010604;28;20194;-91
2022/06/10 09:07:01;;;;;;;1.75;1.10;;;22.50;99.90;;;;;;4954642;28;20199;-91
2022/06/10 09:09:30;;;;;;;4.68;1.15;;;22.50;99.90;;;;;;5010441;28;20239;-91
2022/06/10 09:12:34;;;;;;;2.67;1.55;;;22.20;99.90;;;;;;5011143;28;20211;-91
2022/06/10 09:15:03;;;;;;;3.35;1.60;;;22.30;99.90;;;;;;4996379;28;20202;-91
2022/06/10 09:17:43;;;;;;;5.45;1.45;;;22.10;99.90;;;;;;5010109;28;20191;-92
2022/06/10 09:20:15;;;;;;;4.03;1.40;;;22.40;99.90;;;;;;5010350;28;20179;-92
2022/06/10 09:23:02;;;;;;;5.22;1.50;;;22.70;99.90;;;;;;4977746;28;20291;-91
2022/06/10 09:25:38;;;;;;;3.60;1.35;;;23.10;99.90;;;;;;5010295;28;20191;-91
2022/06/10 09:28:05;;;;;;;3.38;1.48;;;23.30;99.90;;;;;;4994449;28;20179;-91
2022/06/10 09:30:31;;;;;;;2.90;1.40;;;23.60;99.90;;;;;;5010307;28;20194;-91
2022/06/10 09:32:57;;;;;;;3.80;1.50;;;23.70;99.90;;;;;;4993559;28;20242;-92
2022/06/10 09:35:42;;;;;;;3.03;1.33;;;23.70;99.90;;;;;;4993961;28;20179;-92
2022/06/10 09:38:23;;;;;;;3.75;1.45;;;23.30;99.90;;;;;;4977603;28;20179;-91
2022/06/10 09:40:57;;;;;;;5.13;1.63;;;23.00;99.90;;;;;;5010070;28;20203;-92
2022/06/10 09:44:04;;;;;;;6.50;1.70;;;23.20;99.90;;;;;;4977635;28;20267;-91
2022/06/10 09:46:51;;;;;;;4.38;1.65;;;23.10;99.90;;;;;;4992818;28;20266;-92
2022/06/10 09:49:35;;;;;;;5.53;1.40;;;23.10;99.90;;;;;;5010176;28;20190;-91
2022/06/10 09:52:07;;;;;;;2.95;1.50;;;23.20;99.90;;;;;;5010721;28;20763;-91
2022/06/10 09:54:46;;;;;;;4.68;1.58;;;23.60;99.90;;;;;;5010216;28;20210;-91
2022/06/10 09:57:45;;;;;;;3.53;1.20;;;23.80;99.90;;;;;;4993972;28;20179;-92
2022/06/10 10:00:21;;;;;;;4.20;1.30;;;23.70;99.90;;;;;;5010329;28;20179;-91
2022/06/10 10:02:59;;;;;;;2.80;1.30;;;24.10;99.90;;;;;;5009701;28;20203;-91
2022/06/10 10:05:50;;;;;;;3.13;1.30;;;24.10;99.90;;;;;;5009776;28;20183;-92
2022/06/10 10:08:28;;;;;;;2.88;1.38;;;24.40;99.90;;;;;;5010542;28;20180;-91
2022/06/10 10:11:00;;;;;;;2.20;1.10;;;24.60;99.90;;;;;;4994009;28;20230;-92
2022/06/10 10:13:53;;;;;;;3.47;1.25;;;24.50;97.90;;;;;;5009715;28;20202;-91
2022/06/10 10:16:54;;;;;;;3.47;1.17;;;24.50;99.30;;;;;;5010261;28;20179;-92
2022/06/10 10:19:57;;;;;;;2.10;1.33;;;24.70;99.90;;;;;;4993988;28;20171;-91
2022/06/10 10:22:51;;;;;;;3.05;1.40;;;25.00;99.30;;;;;;4993614;28;20226;-91
2022/06/10 10:25:24;;;;;;;1.88;1.15;;;24.90;97.20;;;;;;4993764;28;20191;-91
2022/06/10 10:27:52;;;;;;;3.42;1.30;;;25.10;97.30;;;;;;5009727;28;20187;-91
2022/06/10 10:30:41;;;;;;;2.65;1.30;;;25.10;96.10;;;;;;5010156;28;20234;-92
2022/06/10 10:33:12;;;;;;;2.28;1.00;;;25.00;96.80;;;;;;5009850;28;20330;-91
2022/06/10 10:35:39;;;;;;;3.38;1.23;;;25.20;96.90;;;;;;5009818;28;20179;-91
2022/06/10 10:38:11;;;;;;;2.95;1.30;;;25.10;96.80;;;;;;5009804;28;20187;-92
2022/06/10 10:40:44;;;;;;;2.65;1.20;;;25.10;96.80;;;;;;5009784;28;20194;-92
2022/06/10 10:43:20;;;;;;;4.05;1.30;;;24.70;95.40;;;;;;5013343;28;20318;-92
2022/06/10 10:45:59;;;;;;;3.30;1.10;;;24.20;97.30;;;;;;5013116;28;20186;-91
2022/06/10 10:48:47;;;;;;;2.85;1.10;;;24.60;96.00;;;;;;5013183;28;20214;-91
2022/06/10 10:51:12;;;;;;;2.08;1.10;;;24.30;95.90;;;;;;5013291;28;20258;-91
2022/06/10 10:53:46;;;;;;;2.58;1.30;;;24.60;96.50;;;;;;4997040;28;20183;-92
2022/06/10 10:56:15;;;;;;;1.83;1.00;;;25.10;97.50;;;;;;5013414;28;20267;-91
2022/06/10 10:58:53;;;;;;;3.38;1.27;;;25.40;97.10;;;;;;5013146;28;20183;-92
2022/06/10 11:01:44;;;;;;;2.05;1.00;;;25.70;96.50;;;;;;5013150;28;20195;-92
2022/06/10 11:04:27;;;;;;;4.47;1.20;;;26.00;95.30;;;;;;5013450;28;20167;-91
2022/06/10 11:07:02;;;;;;;2.15;1.02;;;26.20;96.40;;;;;;5013684;28;20257;-93
2022/06/10 11:09:29;;;;;;;2.85;1.25;;;26.20;94.30;;;;;;5013898;28;20190;-92
2022/06/10 11:11:57;;;;;;;4.43;1.30;;;26.10;93.90;;;;;;5013322;28;20216;-92
2022/06/10 11:14:36;;;;;;;2.30;1.30;;;26.10;94.90;;;;;;5014389;28;20314;-91
2022/06/10 11:17:05;;;;;;;3.95;1.20;;;25.80;93.20;;;;;;5014154;28;20182;-91
2022/06/10 11:19:34;;;;;;;3.00;1.30;;;25.50;93.80;;;;;;4997636;28;20239;-92
2022/06/10 11:22:22;;;;;;;3.15;1.20;;;25.40;94.80;;;;;;4980879;28;20196;-92
2022/06/10 11:24:53;;;;;;;4.07;1.35;;;25.40;95.20;;;;;;4996330;28;20183;-92
2022/06/10 11:27:29;;;;;;;3.33;1.40;;;25.70;95.10;;;;;;5012547;28;20179;-91
2022/06/10 11:30:06;;;;;;;2.33;1.30;;;25.30;94.00;;;;;;5012728;28;20239;-92
2022/06/10 11:32:51;;;;;;;4.40;1.40;;;25.40;95.50;;;;;;4995928;28;20242;-91
2022/06/10 11:35:37;;;;;;;2.97;1.15;;;25.40;94.50;;;;;;4996090;28;20187;-92
2022/06/10 11:38:23;;;;;;;4.35;1.33;;;25.20;95.30;;;;;;4996311;28;20212;-92
2022/06/10 11:40:51;;;;;;;2.95;1.33;;;25.50;95.20;;;;;;5012654;28;20199;-91
2022/06/10 11:43:27;;;;;;;3.60;1.23;;;25.60;95.60;;;;;;5012627;28;20187;-91
2022/06/10 11:45:52;;;;;;;3.13;1.30;;;25.70;94.50;;;;;;4995719;28;20183;-92
2022/06/10 11:48:39;;;;;;;3.50;1.30;;;25.40;95.40;;;;;;5012341;28;20184;-92
2022/06/10 11:51:16;;;;;;;2.78;1.17;;;25.80;95.30;;;;;;5012486;28;20210;-92
2022/06/10 11:53:56;;;;;;;1.83;0.90;;;25.70;93.70;;;;;;5011865;28;20195;-92
2022/06/10 11:59:45;;;;;;;3.83;1.27;;;25.80;95.60;;;;;;4995865;28;20178;-92
2022/06/10 12:02:30;;;;;;;2.40;1.13;;;25.70;94.20;;;;;;5011952;28;20203;-92
2022/06/10 12:05:22;;;;;;;2.88;1.55;;;26.10;94.00;;;;;;4995488;28;20186;-92
2022/06/10 12:07:59;;;;;;;3.35;1.48;;;26.40;93.60;;;;;;4995927;28;20194;-92
2022/06/10 12:10:27;;;;;;;3.28;1.05;;;26.00;94.80;;;;;;5011639;28;20187;-92
2022/06/10 12:12:56;;;;;;;4.28;1.35;;;26.20;93.60;;;;;;5011434;28;20238;-92
2022/06/10 12:15:36;;;;;;;3.67;1.50;;;26.30;94.70;;;;;;5011571;28;20184;-92
2022/06/10 12:18:05;;;;;;;3.88;1.38;;;26.40;93.80;;;;;;5011956;28;20317;-92
2022/06/10 12:20:42;;;;;;;5.53;1.77;;;26.40;94.20;;;;;;5011776;28;20265;-92
2022/06/10 12:23:26;;;;;;;2.70;1.20;;;26.20;92.50;;;;;;5011299;28;20674;-92
2022/06/10 12:26:26;;;;;;;2.40;1.40;;;26.40;94.30;;;;;;5011872;28;20187;-92
2022/06/10 12:29:04;;;;;;;3.80;1.30;;;26.60;93.60;;;;;;4978920;28;20265;-92
2022/06/10 12:31:36;;;;;;;4.00;1.38;;;26.90;93.70;;;;;;4994448;28;20215;-92
2022/06/10 12:34:16;;;;;;;3.22;1.30;;;27.20;93.20;;;;;;5011413;28;20627;-92
2022/06/10 12:36:59;;;;;;;2.22;1.30;;;26.60;93.00;;;;;;4994808;28;20171;-92
2022/06/10 12:39:30;;;;;;;2.85;1.40;;;26.80;93.40;;;;;;5011331;28;20183;-92
2022/06/10 12:42:06;;;;;;;2.50;1.25;;;26.90;94.50;;;;;;4995127;28;20211;-92
2022/06/10 12:44:37;;;;;;;2.08;1.27;;;27.30;93.50;;;;;;5011501;28;20179;-92
2022/06/10 12:47:07;;;;;;;1.95;1.35;;;26.90;92.40;;;;;;5011505;28;20182;-92
2022/06/10 12:49:45;;;;;;;2.20;1.10;;;27.00;93.30;;;;;;5011205;28;20183;-92
2022/06/10 12:52:37;;;;;;;1.75;1.30;;;27.40;92.60;;;;;;5011050;28;20211;-92
2022/06/10 12:55:20;;;;;;;3.58;1.33;;;27.20;91.00;;;;;;4995101;28;20175;-93
2022/06/10 12:57:48;;;;;;;1.45;1.10;;;27.40;92.80;;;;;;5029941;28;20243;-93
2022/06/10 13:00:22;;;;;;;3.45;1.17;;;27.10;91.70;;;;;;5011798;28;20197;-92
2022/06/10 13:02:55;;;;;;;2.08;1.10;;;27.60;92.40;;;;;;4977995;28;20202;-92
2022/06/10 13:05:32;;;;;;;1.73;1.20;;;28.00;92.50;;;;;;5010556;28;20175;-92
2022/06/10 13:07:59;;;;;;;3.17;1.30;;;28.00;91.00;;;;;;4994678;28;20179;-92
2022/06/10 13:10:28;;;;;;;2.08;1.20;;;28.20;91.70;;;;;;4994085;28;20206;-92
2022/06/10 13:13:08;;;;;;;2.65;1.30;;;28.30;90.10;;;;;;4994389;28;20245;-92
2022/06/10 13:15:34;;;;;;;2.90;1.30;;;28.60;91.40;;;;;;5010794;28;20206;-92
2022/06/10 13:18:19;;;;;;;2.95;1.23;;;28.70;89.60;;;;;;5010640;28;20183;-93
2022/06/10 13:20:48;;;;;;;2.25;1.27;;;28.60;90.00;;;;;;4994339;28;20175;-92
2022/06/10 13:23:19;;;;;;;2.50;1.10;;;28.50;89.70;;;;;;4994300;28;20234;-92
2022/06/10 13:26:05;;;;;;;2.13;1.17;;;28.70;91.70;;;;;;5010746;28;20172;-92
2022/06/10 13:28:40;;;;;;;2.20;1.27;;;29.10;91.60;;;;;;4987088;28;20186;-93
2022/06/10 13:31:26;;;;;;;4.80;1.38;;;29.30;90.40;;;;;;5010708;28;20282;-92
2022/06/10 13:33:58;;;;;;;2.38;1.17;;;28.90;89.30;;;;;;4977158;28;20206;-92